Time;durP1;ratioP1;P1;durP2;ratioP2;P2;SDS_P1;SDS_P2;PMS_P1;PMS_P2;Temp;Humidity;BMP_temperature;BMP_pressure;BME280_temperature;BME280_humidity;BME280_pressure;Samples;Min_cycle;Max_cycle;Signal;HPM_P1;HPM_P2
2021/04/23 00:02:20;;;;;;;;;;;;;;;20.08;30.15;100835.53;4372404;32;19963;-52
2021/04/23 00:04:46;;;;;;;;;;;;;;;20.05;30.13;100836.34;4369254;32;20337;-49
2021/04/23 00:07:12;;;;;;;;;;;;;;;20.03;29.98;100826.59;4358920;32;19951;-50
2021/04/23 00:09:38;;;;;;;;;;;;;;;20.08;30.03;100825.84;4361640;32;19970;-53
2021/04/23 00:12:04;;;;;;;;;;;;;;;20.03;30.07;100823.94;4372973;32;19962;-51
2021/04/23 00:14:30;;;;;;;;;;;;;;;20.03;30.07;100837.16;4371101;32;19955;-52
2021/04/23 00:16:56;;;;;;;;;;;;;;;19.95;30.19;100829.06;4357482;32;19974;-49
2021/04/23 00:19:22;;;;;;;;;;;;;;;20.02;30.01;100830.09;4367457;32;19966;-53
2021/04/23 00:21:48;;;;;;;;;;;;;;;20.01;30.13;100823.03;4358783;32;19970;-51
2021/04/23 00:24:13;;;;;;;;;;;;;;;19.98;30.15;100833.53;4356878;32;19959;-50
2021/04/23 00:26:39;;;;;;;;;;;;;;;19.95;30.16;100823.78;4372586;32;19974;-53
2021/04/23 00:29:05;;;;;;;;;;;;;;;19.96;30.20;100832.63;4372746;32;20005;-51
2021/04/23 00:31:31;;;;;;;;;;;;;;;19.93;30.11;100826.38;4371488;32;19966;-51
2021/04/23 00:33:57;;;;;;;;;;;;;;;19.99;30.08;100830.03;4373280;32;19951;-52
2021/04/23 00:36:23;;;;;;;;;;;;;;;19.94;30.12;100838.78;4361915;32;20471;-51
2021/04/23 00:38:49;;;;;;;;;;;;;;;19.96;30.07;100836.16;4358368;32;19944;-51
2021/04/23 00:41:14;;;;;;;;;;;;;;;19.93;30.15;100836.97;4357356;32;19966;-51
2021/04/23 00:43:40;;;;;;;;;;;;;;;19.94;30.13;100833.50;4358364;32;19989;-48
2021/04/23 00:46:06;;;;;;;;;;;;;;;19.92;30.14;100829.91;4366083;32;19965;-52
2021/04/23 00:48:32;;;;;;;;;;;;;;;19.92;30.05;100834.28;4372522;32;19959;-51
2021/04/23 00:50:58;;;;;;;;;;;;;;;19.91;30.18;100828.09;4366039;32;19940;-51
2021/04/23 00:53:24;;;;;;;;;;;;;;;19.93;30.09;100825.53;4357967;32;19947;-50
2021/04/23 00:55:50;;;;;;;;;;;;;;;19.87;30.20;100835.91;4364153;32;20000;-50
2021/04/23 00:58:16;;;;;;;;;;;;;;;19.83;30.28;100828.78;4372695;32;19965;-52
2021/04/23 01:00:42;;;;;;;;;;;;;;;19.86;30.08;100832.38;4372660;32;20377;-50
2021/04/23 01:03:07;;;;;;;;;;;;;;;19.89;30.08;100829.81;4371756;32;19979;-53
2021/04/23 01:05:33;;;;;;;;;;;;;;;19.83;30.17;100834.97;4369965;32;19952;-50
2021/04/23 01:07:59;;;;;;;;;;;;;;;19.77;30.31;100835.72;4357992;32;20284;-51
2021/04/23 01:10:25;;;;;;;;;;;;;;;19.86;30.02;100834.13;4357178;32;20001;-52
2021/04/23 01:12:51;;;;;;;;;;;;;;;19.88;30.09;100833.31;4357976;32;20016;-51
2021/04/23 01:15:17;;;;;;;;;;;;;;;19.93;29.97;100831.69;4357596;32;20301;-53
2021/04/23 01:17:43;;;;;;;;;;;;;;;19.89;30.06;100832.44;4371584;32;19959;-52
2021/04/23 01:20:09;;;;;;;;;;;;;;;19.87;29.95;100825.34;4372239;32;19951;-52
2021/04/23 01:22:35;;;;;;;;;;;;;;;19.91;29.99;100832.50;4358299;32;20295;-49
2021/04/23 01:25:01;;;;;;;;;;;;;;;19.87;29.89;100826.25;4357878;32;19952;-49
2021/04/23 01:27:27;;;;;;;;;;;;;;;19.88;29.97;100827.13;4356235;32;19956;-53
2021/04/23 01:29:53;;;;;;;;;;;;;;;19.86;30.02;100823.56;4357021;32;19989;-52
2021/04/23 01:32:19;;;;;;;;;;;;;;;19.85;29.92;100820.03;4367704;32;19955;-53
2021/04/23 01:34:45;;;;;;;;;;;;;;;19.81;29.89;100826.09;4371993;32;19987;-51
2021/04/23 01:37:13;;;;;;;;;;;;;;;19.81;30.05;100823.44;4362339;32;20257;-51
2021/04/23 01:39:39;;;;;;;;;;;;;;;19.79;30.01;100822.53;4357613;32;19975;-49
2021/04/23 01:42:04;;;;;;;;;;;;;;;19.80;30.08;100821.66;4365678;32;19963;-51
2021/04/23 01:44:30;;;;;;;;;;;;;;;19.73;30.12;100827.69;4372578;32;19951;-50
2021/04/23 01:46:57;;;;;;;;;;;;;;;19.77;30.10;100826.91;4367056;32;20726;-52
2021/04/23 01:49:22;;;;;;;;;;;;;;;19.79;30.09;100833.09;4372098;32;20041;-51
2021/04/23 01:51:48;;;;;;;;;;;;;;;19.79;29.95;100833.09;4365844;32;19948;-49
2021/04/23 01:54:14;;;;;;;;;;;;;;;19.77;29.94;100837.47;4357077;32;19980;-53
2021/04/23 01:56:40;;;;;;;;;;;;;;;19.77;30.02;100842.75;4361905;32;19970;-51
2021/04/23 01:59:06;;;;;;;;;;;;;;;19.77;29.91;100845.41;4371705;32;20370;-51
2021/04/23 02:01:32;;;;;;;;;;;;;;;19.82;29.89;100845.50;4370460;32;19970;-49
2021/04/23 02:03:58;;;;;;;;;;;;;;;19.78;29.97;100848.09;4371393;32;19948;-51
2021/04/23 02:06:23;;;;;;;;;;;;;;;19.70;30.14;100852.28;4369703;32;20032;-50
2021/04/23 02:08:49;;;;;;;;;;;;;;;19.70;30.06;100851.41;4357412;32;20359;-53
2021/04/23 02:11:15;;;;;;;;;;;;;;;19.70;30.03;100859.34;4357163;32;20006;-51
2021/04/23 02:13:41;;;;;;;;;;;;;;;19.64;30.19;100854.81;4372066;32;19951;-51
2021/04/23 02:16:07;;;;;;;;;;;;;;;19.67;29.97;100854.88;4370928;32;19963;-49
2021/04/23 02:18:33;;;;;;;;;;;;;;;19.72;29.97;100858.50;4370248;32;19954;-52
2021/04/23 02:20:59;;;;;;;;;;;;;;;19.73;29.99;100860.28;4371390;32;20335;-53
2021/04/23 02:23:25;;;;;;;;;;;;;;;19.76;29.92;100859.47;4358509;32;19955;-48
2021/04/23 02:25:51;;;;;;;;;;;;;;;19.74;29.88;100861.19;4357044;32;19990;-51
2021/04/23 02:28:17;;;;;;;;;;;;;;;19.69;30.04;100862.81;4368145;32;19999;-52
2021/04/23 02:30:43;;;;;;;;;;;;;;;19.70;29.94;100869.91;4371670;32;19970;-49
2021/04/23 02:33:09;;;;;;;;;;;;;;;19.66;30.01;100869.81;4369715;32;19966;-52
2021/04/23 02:35:35;;;;;;;;;;;;;;;19.69;29.98;100870.75;4371762;32;19966;-49
2021/04/23 02:38:01;;;;;;;;;;;;;;;19.70;29.90;100876.06;4363352;32;19967;-54
2021/04/23 02:40:27;;;;;;;;;;;;;;;19.74;29.80;100875.28;4355878;32;20341;-52
2021/04/23 02:42:53;;;;;;;;;;;;;;;19.69;29.84;100879.56;4364359;32;19951;-52
2021/04/23 02:45:18;;;;;;;;;;;;;;;19.64;29.91;100876.81;4370860;32;19973;-52
2021/04/23 02:47:44;;;;;;;;;;;;;;;19.69;29.88;100878.66;4364062;32;20581;-53
2021/04/23 02:50:10;;;;;;;;;;;;;;;19.70;29.77;100875.19;4355975;32;19986;-52
2021/04/23 02:52:36;;;;;;;;;;;;;;;19.77;29.65;100877.09;4361933;32;19966;-50
2021/04/23 02:55:02;;;;;;;;;;;;;;;19.78;29.76;100873.59;4371673;32;19955;-52
2021/04/23 02:57:28;;;;;;;;;;;;;;;19.73;29.83;100883.19;4367551;32;21543;-50
2021/04/23 02:59:54;;;;;;;;;;;;;;;19.62;29.93;100880.28;4356441;32;19955;-50
2021/04/23 03:02:20;;;;;;;;;;;;;;;19.63;29.87;100885.59;4356563;32;19947;-50
2021/04/23 03:04:45;;;;;;;;;;;;;;;19.64;29.96;100889.16;4371597;32;20029;-47
2021/04/23 03:07:11;;;;;;;;;;;;;;;19.63;29.99;100885.59;4370666;32;19966;-49
2021/04/23 03:09:37;;;;;;;;;;;;;;;19.60;29.82;100896.12;4356285;32;19990;-51
2021/04/23 03:12:03;;;;;;;;;;;;;;;19.57;29.98;100889.84;4356362;32;19985;-52
2021/04/23 03:14:29;;;;;;;;;;;;;;;19.57;30.03;100893.41;4371117;32;19951;-51
2021/04/23 03:16:55;;;;;;;;;;;;;;;19.51;29.99;100891.50;4370448;32;20046;-51
2021/04/23 03:19:21;;;;;;;;;;;;;;;19.54;30.04;100895.06;4358015;32;19962;-51
2021/04/23 03:21:47;;;;;;;;;;;;;;;19.47;30.25;100891.41;4356813;32;19950;-52
2021/04/23 03:24:13;;;;;;;;;;;;;;;19.50;30.16;100883.53;4367751;32;19983;-51
2021/04/23 03:26:39;;;;;;;;;;;;;;;19.51;30.12;100895.88;4371250;32;20314;-52
2021/04/23 03:29:04;;;;;;;;;;;;;;;19.58;30.00;100897.84;4360565;32;19990;-51
2021/04/23 03:31:30;;;;;;;;;;;;;;;19.54;30.02;100900.34;4355665;32;19966;-50
2021/04/23 03:33:56;;;;;;;;;;;;;;;19.54;30.08;100897.72;4364842;32;19947;-51
2021/04/23 03:36:22;;;;;;;;;;;;;;;19.49;30.11;100902.88;4371238;32;20478;-52
2021/04/23 03:38:48;;;;;;;;;;;;;;;19.57;29.97;100895.13;4363318;32;19966;-53
2021/04/23 03:41:14;;;;;;;;;;;;;;;19.52;29.95;100902.94;4356136;32;20015;-54
2021/04/23 03:43:40;;;;;;;;;;;;;;;19.55;29.86;100897.72;4359687;32;19951;-49
2021/04/23 03:46:06;;;;;;;;;;;;;;;19.38;30.17;100892.94;4355506;32;20029;-55
2021/04/23 03:48:33;;;;;;;;;;;;;;;19.38;30.23;100890.31;4364091;32;19967;-52
2021/04/23 03:50:59;;;;;;;;;;;;;;;19.43;30.00;100897.44;4359423;32;20034;-50
2021/04/23 03:53:25;;;;;;;;;;;;;;;19.47;30.08;100894.91;4361921;32;20661;-51
2021/04/23 03:55:51;;;;;;;;;;;;;;;19.47;29.94;100896.69;4374143;32;19958;-52
2021/04/23 03:58:18;;;;;;;;;;;;;;;19.52;30.00;100900.31;4371241;32;19959;-54
2021/04/23 04:00:44;;;;;;;;;;;;;;;19.50;30.03;100909.94;4358720;32;19952;-51
2021/04/23 04:03:10;;;;;;;;;;;;;;;19.41;30.17;100907.06;4357907;32;19989;-54
2021/04/23 04:05:35;;;;;;;;;;;;;;;19.48;30.02;100906.38;4373908;32;19967;-52
2021/04/23 04:08:01;;;;;;;;;;;;;;;19.44;30.00;100908.03;4374124;32;20257;-50
2021/04/23 04:10:28;;;;;;;;;;;;;;;19.47;29.98;100912.53;4357765;32;20033;-54
2021/04/23 04:12:53;;;;;;;;;;;;;;;19.42;30.12;100919.41;4358757;32;19970;-49
2021/04/23 04:15:20;;;;;;;;;;;;;;;19.38;30.09;100922.00;4371752;32;19971;-53
2021/04/23 04:17:45;;;;;;;;;;;;;;;19.34;30.25;100925.41;4373002;32;19987;-53
2021/04/23 04:20:11;;;;;;;;;;;;;;;19.37;30.07;100922.84;4360907;32;20023;-49
2021/04/23 04:22:37;;;;;;;;;;;;;;;19.34;30.24;100930.69;4358221;32;19999;-52
2021/04/23 04:25:03;;;;;;;;;;;;;;;19.36;30.08;100930.72;4368706;32;19947;-53
2021/04/23 04:27:29;;;;;;;;;;;;;;;19.43;29.98;100929.13;4372838;32;19955;-51
2021/04/23 04:29:55;;;;;;;;;;;;;;;19.42;29.99;100935.28;4363771;32;20433;-52
2021/04/23 04:32:21;;;;;;;;;;;;;;;19.34;30.19;100937.72;4356656;32;19935;-51
2021/04/23 04:34:47;;;;;;;;;;;;;;;19.37;30.00;100930.78;4366567;32;19951;-53
2021/04/23 04:37:13;;;;;;;;;;;;;;;19.48;29.86;100938.09;4373021;32;19992;-50
2021/04/23 04:39:38;;;;;;;;;;;;;;;19.44;29.90;100936.19;4366580;32;19990;-48
2021/04/23 04:42:04;;;;;;;;;;;;;;;19.42;30.09;100937.91;4357273;32;19962;-52
2021/04/23 04:44:30;;;;;;;;;;;;;;;19.36;30.10;100941.28;4357874;32;20296;-51
2021/04/23 04:46:56;;;;;;;;;;;;;;;19.32;30.16;100942.97;4361746;32;19966;-53
2021/04/23 04:49:22;;;;;;;;;;;;;;;19.36;30.11;100952.75;4368328;32;19977;-54
2021/04/23 04:51:48;;;;;;;;;;;;;;;19.44;30.04;100946.75;4358191;32;19970;-52
2021/04/23 04:54:14;;;;;;;;;;;;;;;19.45;29.84;100960.00;4357792;32;20055;-52
2021/04/23 04:56:40;;;;;;;;;;;;;;;19.49;29.85;100961.00;4357727;32;19955;-50
2021/04/23 04:59:05;;;;;;;;;;;;;;;19.42;30.01;100959.03;4358264;32;19975;-50
2021/04/23 05:01:31;;;;;;;;;;;;;;;19.35;29.98;100964.19;4369624;32;19955;-50
2021/04/23 05:03:57;;;;;;;;;;;;;;;19.38;30.06;100961.59;4372716;32;19951;-49
2021/04/23 05:06:23;;;;;;;;;;;;;;;19.35;29.98;100966.81;4357789;32;20724;-53
2021/04/23 05:08:49;;;;;;;;;;;;;;;19.30;30.18;100965.78;4358173;32;20066;-51
2021/04/23 05:11:15;;;;;;;;;;;;;;;19.38;30.04;100966.88;4370809;32;20020;-52
2021/04/23 05:13:41;;;;;;;;;;;;;;;19.44;29.90;100978.44;4371966;32;20034;-50
2021/04/23 05:16:07;;;;;;;;;;;;;;;19.47;29.84;100973.28;4365845;32;20004;-53
2021/04/23 05:18:33;;;;;;;;;;;;;;;19.39;30.04;100981.00;4367891;32;19998;-50
2021/04/23 05:20:59;;;;;;;;;;;;;;;19.35;30.09;100979.13;4368499;32;20026;-55
2021/04/23 05:23:25;;;;;;;;;;;;;;;19.32;30.12;100985.22;4365042;32;20129;-53
2021/04/23 05:25:51;;;;;;;;;;;;;;;19.27;30.33;100988.59;4366572;32;19939;-54
2021/04/23 05:28:16;;;;;;;;;;;;;;;19.22;30.40;100993.75;4365921;32;19940;-53
2021/04/23 05:30:42;;;;;;;;;;;;;;;19.27;30.27;100992.13;4364803;32;20343;-53
2021/04/23 05:33:08;;;;;;;;;;;;;;;19.32;30.16;100995.78;4362693;32;19993;-52
2021/04/23 05:35:34;;;;;;;;;;;;;;;19.24;30.42;100997.31;4366767;32;19954;-50
2021/04/23 05:38:00;;;;;;;;;;;;;;;19.22;30.36;100999.03;4365191;32;19952;-50
2021/04/23 05:40:26;;;;;;;;;;;;;;;19.20;30.38;101006.00;4362470;32;19991;-52
2021/04/23 05:42:52;;;;;;;;;;;;;;;19.26;30.30;101000.91;4366615;32;20029;-52
2021/04/23 05:45:18;;;;;;;;;;;;;;;19.26;30.46;101005.28;4364717;32;20338;-51
2021/04/23 05:47:44;;;;;;;;;;;;;;;19.16;30.61;101004.13;4363724;32;19967;-53
2021/04/23 05:50:10;;;;;;;;;;;;;;;19.16;30.60;101014.69;4364004;32;19971;-53
2021/04/23 05:52:36;;;;;;;;;;;;;;;19.22;30.47;101010.47;4365560;32;20036;-52
2021/04/23 05:55:02;;;;;;;;;;;;;;;19.27;30.34;101015.00;4366464;32;19935;-54
2021/04/23 05:57:28;;;;;;;;;;;;;;;19.30;30.37;101015.97;4364630;32;19975;-52
2021/04/23 05:59:53;;;;;;;;;;;;;;;19.27;30.42;101028.22;4363571;32;20411;-53
2021/04/23 06:02:19;;;;;;;;;;;;;;;19.37;30.23;101020.56;4366919;32;19993;-52
2021/04/23 06:04:45;;;;;;;;;;;;;;;19.35;30.26;101022.28;4364401;32;20005;-53
2021/04/23 06:07:11;;;;;;;;;;;;;;;19.46;30.07;101025.19;4364997;32;20284;-52
2021/04/23 06:09:37;;;;;;;;;;;;;;;19.41;30.18;101028.56;4365178;32;19955;-54
2021/04/23 06:12:03;;;;;;;;;;;;;;;19.43;30.13;101029.50;4364599;32;19993;-53
2021/04/23 06:14:29;;;;;;;;;;;;;;;19.39;30.26;101028.53;4365772;32;19998;-49
2021/04/23 06:16:56;;;;;;;;;;;;;;;19.41;30.26;101023.28;4365794;32;20008;-53
2021/04/23 06:19:21;;;;;;;;;;;;;;;19.40;30.30;101026.78;4364385;32;19959;-54
2021/04/23 06:21:47;;;;;;;;;;;;;;;19.38;30.29;101029.38;4365064;32;19955;-51
2021/04/23 06:24:13;;;;;;;;;;;;;;;19.43;30.24;101032.12;4363863;32;19959;-52
2021/04/23 06:26:39;;;;;;;;;;;;;;;19.45;30.18;101033.09;4363318;32;19983;-51
2021/04/23 06:29:05;;;;;;;;;;;;;;;19.45;30.26;101038.38;4363207;32;19959;-54
2021/04/23 06:31:32;;;;;;;;;;;;;;;19.42;30.21;101033.00;4362922;32;19967;-52
2021/04/23 06:33:58;;;;;;;;;;;;;;;19.47;30.18;101031.38;4372293;32;20324;-53
2021/04/23 06:36:24;;;;;;;;;;;;;;;19.47;30.18;101032.25;4369462;32;20016;-53
2021/04/23 06:38:50;;;;;;;;;;;;;;;19.47;30.25;101031.38;4362608;32;19971;-54
2021/04/23 06:41:16;;;;;;;;;;;;;;;19.46;30.25;101033.13;4365544;32;19963;-52
2021/04/23 06:43:43;;;;;;;;;;;;;;;19.50;30.25;101036.75;4361499;32;20034;-50
2021/04/23 06:46:09;;;;;;;;;;;;;;;19.48;30.27;101034.03;4364172;32;20315;-53
2021/04/23 06:48:35;;;;;;;;;;;;;;;19.50;30.24;101036.75;4368464;32;19992;-51
2021/04/23 06:51:04;;;;;;;;;;;;;;;19.51;30.24;101038.53;4368570;32;20018;-54
2021/04/23 06:53:30;;;;;;;;;;;;;;;19.50;30.26;101026.19;4360089;32;19990;-54
2021/04/23 06:55:56;;;;;;;;;;;;;;;19.32;30.23;101040.69;4370081;32;20495;-50
2021/04/23 06:58:22;;;;;;;;;;;;;;;19.45;30.27;101038.38;4369600;32;19955;-53
2021/04/23 07:00:49;;;;;;;;;;;;;;;19.48;30.25;101038.47;4369555;32;19963;-54
2021/04/23 07:03:14;;;;;;;;;;;;;;;19.50;30.18;101042.03;4354414;32;19997;-51
2021/04/23 07:05:40;;;;;;;;;;;;;;;19.43;30.12;101046.25;4356005;32;19960;-51
2021/04/23 07:08:06;;;;;;;;;;;;;;;19.50;29.99;101039.38;4367482;32;19960;-54
2021/04/23 07:10:32;;;;;;;;;;;;;;;19.61;29.92;101032.63;4359934;32;19959;-50
2021/04/23 07:12:58;;;;;;;;;;;;;;;19.50;30.16;101036.75;4358762;32;19998;-50
2021/04/23 07:15:24;;;;;;;;;;;;;;;19.48;30.24;101035.81;4354329;32;19959;-51
2021/04/23 07:17:51;;;;;;;;;;;;;;;19.60;30.03;101044.06;4365318;32;19954;-52
2021/04/23 07:20:17;;;;;;;;;;;;;;;19.67;29.87;101042.47;4370060;32;19955;-54
2021/04/23 07:22:43;;;;;;;;;;;;;;;19.60;29.98;101038.78;4363538;32;19997;-52
2021/04/23 07:25:09;;;;;;;;;;;;;;;19.71;29.87;101048.75;4371908;32;19955;-52
2021/04/23 07:27:36;;;;;;;;;;;;;;;19.67;29.97;101043.34;4368606;32;20265;-51
2021/04/23 07:30:02;;;;;;;;;;;;;;;19.63;30.11;101051.16;4364446;32;20311;-51
2021/04/23 07:32:28;;;;;;;;;;;;;;;19.62;30.16;101046.72;4363988;32;19994;-51
2021/04/23 07:34:54;;;;;;;;;;;;;;;19.63;30.19;101043.22;4373326;32;19965;-50
2021/04/23 07:37:20;;;;;;;;;;;;;;;19.66;30.15;101046.84;4367499;32;20359;-53
2021/04/23 07:39:46;;;;;;;;;;;;;;;19.69;30.10;101045.12;4358041;32;19981;-52
2021/04/23 07:42:11;;;;;;;;;;;;;;;19.67;30.14;101047.75;4361524;32;20432;-52
2021/04/23 07:44:37;;;;;;;;;;;;;;;19.58;30.33;101048.41;4372878;32;20256;-50
2021/04/23 07:47:03;;;;;;;;;;;;;;;19.59;30.33;101047.56;4368498;32;19951;-52
2021/04/23 07:49:29;;;;;;;;;;;;;;;19.52;30.44;101037.66;4363013;32;19955;-50
2021/04/23 07:51:55;;;;;;;;;;;;;;;19.58;30.44;101043.13;4365761;32;20146;-54
2021/04/23 07:54:21;;;;;;;;;;;;;;;19.66;30.35;101043.34;4367353;32;20022;-54
2021/04/23 07:56:47;;;;;;;;;;;;;;;19.67;30.38;101046.00;4362706;32;20005;-54
2021/04/23 07:59:12;;;;;;;;;;;;;;;19.69;30.33;101048.69;4364595;32;19978;-48
2021/04/23 08:01:38;;;;;;;;;;;;;;;19.74;30.27;101046.16;4356359;32;20110;-49
2021/04/23 08:04:04;;;;;;;;;;;;;;;19.78;30.23;101046.28;4371047;32;19955;-54
2021/04/23 08:06:30;;;;;;;;;;;;;;;19.78;30.22;101042.72;4373206;32;19995;-51
2021/04/23 08:08:56;;;;;;;;;;;;;;;19.80;30.26;101046.31;4359859;32;20004;-49
2021/04/23 08:11:22;;;;;;;;;;;;;;;19.72;30.41;101042.59;4356912;32;20049;-53
2021/04/23 08:13:48;;;;;;;;;;;;;;;19.72;30.41;101042.59;4368725;32;19956;-53
2021/04/23 08:16:16;;;;;;;;;;;;;;;19.67;30.51;101046.00;4354430;32;19959;-51
2021/04/23 08:18:42;;;;;;;;;;;;;;;19.73;30.42;101054.94;4366660;32;19989;-54
2021/04/23 08:21:08;;;;;;;;;;;;;;;19.75;30.37;101056.75;4364458;32;20328;-55
2021/04/23 08:23:34;;;;;;;;;;;;;;;19.78;30.33;101061.25;4361621;32;19967;-54
2021/04/23 08:26:03;;;;;;;;;;;;;;;19.83;30.29;101051.69;4372845;32;20534;-50
2021/04/23 08:28:29;;;;;;;;;;;;;;;19.76;30.40;101044.44;4365238;32;19989;-52
2021/04/23 08:30:55;;;;;;;;;;;;;;;19.78;30.41;101048.03;4356675;32;20005;-52
2021/04/23 08:33:21;;;;;;;;;;;;;;;19.77;30.40;101051.53;4362028;32;19959;-52
2021/04/23 08:35:47;;;;;;;;;;;;;;;19.77;30.42;101052.44;4372505;32;19955;-51
2021/04/23 08:38:13;;;;;;;;;;;;;;;19.76;30.44;101050.66;4367185;32;20030;-53
2021/04/23 08:40:39;;;;;;;;;;;;;;;19.66;30.64;101049.50;4361527;32;20011;-54
2021/04/23 08:43:05;;;;;;;;;;;;;;;19.72;30.56;101054.03;4363442;32;19970;-52
2021/04/23 08:45:32;;;;;;;;;;;;;;;19.73;30.59;101052.31;4366447;32;19989;-52
2021/04/23 08:47:57;;;;;;;;;;;;;;;19.75;30.64;101050.59;4368710;32;19948;-55
2021/04/23 08:50:24;;;;;;;;;;;;;;;19.74;30.70;101046.16;4361929;32;19963;-55
2021/04/23 08:52:51;;;;;;;;;;;;;;;19.87;30.48;101048.25;4369680;32;19959;-52
2021/04/23 08:55:17;;;;;;;;;;;;;;;19.94;30.40;101050.25;4367659;32;19959;-54
2021/04/23 08:57:43;;;;;;;;;;;;;;;19.89;30.49;101053.59;4365223;32;19973;-55
2021/04/23 09:00:09;;;;;;;;;;;;;;;19.97;30.37;101043.25;4359092;32;19963;-55
2021/04/23 09:02:35;;;;;;;;;;;;;;;19.97;30.42;101040.59;4365408;32;20833;-55
2021/04/23 09:05:01;;;;;;;;;;;;;;;20.02;30.32;101038.94;4362484;32;20011;-54
2021/04/23 09:07:27;;;;;;;;;;;;;;;20.05;30.31;101039.03;4364158;32;20519;-55
2021/04/23 09:09:53;;;;;;;;;;;;;;;20.07;30.30;101039.97;4367058;32;19955;-52
2021/04/23 09:12:19;;;;;;;;;;;;;;;20.06;30.35;101030.22;4363395;32;19959;-54
2021/04/23 09:14:45;;;;;;;;;;;;;;;20.07;30.35;101032.03;4365459;32;20839;-53
2021/04/23 09:17:11;;;;;;;;;;;;;;;20.04;30.43;101034.59;4365819;32;19962;-54
2021/04/23 09:19:37;;;;;;;;;;;;;;;19.92;30.66;101029.87;4363586;32;19958;-54
2021/04/23 09:22:03;;;;;;;;;;;;;;;19.98;30.61;101023.87;4364621;32;20331;-56
2021/04/23 09:24:28;;;;;;;;;;;;;;;19.99;30.57;101023.03;4361383;32;20013;-55
2021/04/23 09:26:54;;;;;;;;;;;;;;;20.07;30.45;101025.00;4356452;32;19994;-54
2021/04/23 09:29:20;;;;;;;;;;;;;;;20.12;30.41;101022.47;4364499;32;20391;-54
2021/04/23 09:31:46;;;;;;;;;;;;;;;20.10;30.48;101024.19;4360948;32;19992;-52
2021/04/23 09:34:12;;;;;;;;;;;;;;;20.12;30.44;101027.75;4364738;32;20396;-52
2021/04/23 09:36:40;;;;;;;;;;;;;;;20.13;30.44;101023.37;4363139;32;20018;-54
2021/04/23 09:39:06;;;;;;;;;;;;;;;20.10;30.51;101029.47;4367190;32;20030;-53
2021/04/23 09:41:32;;;;;;;;;;;;;;;20.11;30.54;101025.97;4368072;32;20583;-50
2021/04/23 09:43:58;;;;;;;;;;;;;;;20.16;30.47;101024.31;4364050;32;19963;-51
2021/04/23 09:46:24;;;;;;;;;;;;;;;20.16;30.48;101029.59;4362509;32;20002;-54
2021/04/23 09:48:50;;;;;;;;;;;;;;;20.19;30.46;101027.03;4359770;32;19955;-54
2021/04/23 09:51:15;;;;;;;;;;;;;;;20.17;30.54;101025.22;4365244;32;19998;-54
2021/04/23 09:53:43;;;;;;;;;;;;;;;20.17;30.57;101030.50;4368335;32;19959;-52
2021/04/23 09:56:09;;;;;;;;;;;;;;;20.16;30.54;101013.72;4371129;32;19974;-54
2021/04/23 09:58:35;;;;;;;;;;;;;;;20.16;30.61;101018.12;4370677;32;19959;-54
2021/04/23 10:01:02;;;;;;;;;;;;;;;20.20;30.55;101020.00;4356405;32;19956;-55
2021/04/23 10:03:28;;;;;;;;;;;;;;;20.26;30.48;101009.56;4355706;32;19999;-52
2021/04/23 10:05:54;;;;;;;;;;;;;;;20.25;30.52;101015.72;4353057;32;20335;-52
2021/04/23 10:08:19;;;;;;;;;;;;;;;20.17;30.63;101010.22;4366321;32;19974;-52
2021/04/23 10:10:46;;;;;;;;;;;;;;;20.21;30.60;100998.88;4359541;32;20017;-51
2021/04/23 10:13:15;;;;;;;;;;;;;;;20.24;30.58;101003.31;4363498;32;19959;-56
2021/04/23 10:15:41;;;;;;;;;;;;;;;20.25;30.53;101007.78;4361471;32;19986;-56
2021/04/23 10:18:07;;;;;;;;;;;;;;;20.34;30.44;101005.31;4363849;32;20316;-56
2021/04/23 10:20:33;;;;;;;;;;;;;;;20.30;30.53;101015.78;4359721;32;19959;-55
2021/04/23 10:22:59;;;;;;;;;;;;;;;20.27;30.56;101002.50;4363233;32;20010;-54
2021/04/23 10:25:25;;;;;;;;;;;;;;;20.34;30.47;101001.81;4364511;32;19959;-55
2021/04/23 10:27:51;;;;;;;;;;;;;;;20.34;30.48;101007.09;4364623;32;19977;-56
2021/04/23 10:30:17;;;;;;;;;;;;;;;20.16;30.65;101013.72;4365562;32;20300;-53
2021/04/23 10:32:43;;;;;;;;;;;;;;;20.27;30.61;101011.34;4361703;32;19983;-55
2021/04/23 10:35:09;;;;;;;;;;;;;;;20.35;30.50;101009.75;4361831;32;20057;-55
2021/04/23 10:37:35;;;;;;;;;;;;;;;20.34;30.56;101001.81;4361265;32;19987;-51
2021/04/23 10:40:01;;;;;;;;;;;;;;;20.30;30.60;101006.13;4363516;32;19959;-55
2021/04/23 10:42:27;;;;;;;;;;;;;;;20.32;30.59;101004.41;4363488;32;19956;-51
2021/04/23 10:44:58;;;;;;;;;;;;;;;20.35;30.56;101004.47;4363612;32;20012;-53
2021/04/23 10:47:24;;;;;;;;;;;;;;;20.33;30.63;101010.59;4363433;32;19960;-53
2021/04/23 10:49:50;;;;;;;;;;;;;;;20.34;30.57;101005.31;4362577;32;19948;-52
2021/04/23 10:52:16;;;;;;;;;;;;;;;20.37;30.61;101004.50;4363944;32;20004;-54
2021/04/23 10:54:41;;;;;;;;;;;;;;;20.42;30.54;100999.31;4360348;32;19990;-54
2021/04/23 10:57:08;;;;;;;;;;;;;;;20.38;30.61;100998.34;4361821;32;19982;-54
2021/04/23 10:59:35;;;;;;;;;;;;;;;20.39;30.61;101004.56;4361670;32;20001;-53
2021/04/23 11:02:01;;;;;;;;;;;;;;;20.39;30.64;101000.13;4368113;32;19963;-55
2021/04/23 11:04:27;;;;;;;;;;;;;;;20.39;30.59;100993.97;4364801;32;20009;-55
2021/04/23 11:06:53;;;;;;;;;;;;;;;20.37;30.65;100991.28;4363902;32;19987;-55
2021/04/23 11:09:19;;;;;;;;;;;;;;;20.41;30.64;100990.47;4367169;32;20256;-54
2021/04/23 11:11:45;;;;;;;;;;;;;;;20.46;30.54;100994.13;4368863;32;19955;-52
2021/04/23 11:14:11;;;;;;;;;;;;;;;20.46;30.58;100988.84;4366910;32;20316;-52
2021/04/23 11:16:37;;;;;;;;;;;;;;;20.48;30.57;100983.56;4367780;32;19955;-55
2021/04/23 11:19:03;;;;;;;;;;;;;;;20.44;30.58;100977.34;4366896;32;19981;-54
2021/04/23 11:23:58;;;;;;;;;;;;;;;20.49;30.51;100975.69;4368541;32;19959;-53
2021/04/23 11:26:24;;;;;;;;;;;;;;;20.55;30.48;100960.78;4368783;32;19985;-54
2021/04/23 11:28:50;;;;;;;;;;;;;;;20.54;30.54;100962.56;4373277;32;19955;-54
2021/04/23 11:31:16;;;;;;;;;;;;;;;20.58;30.49;100966.16;4366972;32;19991;-55
2021/04/23 11:33:42;;;;;;;;;;;;;;;20.48;30.35;100968.59;4358836;32;20372;-55
2021/04/23 11:36:08;;;;;;;;;;;;;;;20.41;30.65;100971.09;4363089;32;19947;-55
2021/04/23 11:38:34;;;;;;;;;;;;;;;20.50;30.58;100971.28;4373593;32;19959;-56
2021/04/23 11:41:00;;;;;;;;;;;;;;;20.49;30.75;100969.47;4371288;32;19954;-54
2021/04/23 11:43:25;;;;;;;;;;;;;;;20.57;30.74;100959.97;4357694;32;19958;-53
2021/04/23 11:45:51;;;;;;;;;;;;;;;20.59;30.67;100960.00;4360839;32;19951;-53
2021/04/23 11:48:17;;;;;;;;;;;;;;;20.58;30.63;100956.44;4371867;32;19951;-55
2021/04/23 11:50:45;;;;;;;;;;;;;;;20.55;30.74;100958.13;4373097;32;20322;-55
2021/04/23 11:53:11;;;;;;;;;;;;;;;20.55;30.80;100952.84;4365988;32;19986;-53
2021/04/23 11:55:37;;;;;;;;;;;;;;;20.52;30.84;100953.69;4374525;32;19965;-60
2021/04/23 11:58:03;;;;;;;;;;;;;;;20.49;28.70;100959.81;4360988;32;19951;-59
2021/04/23 12:00:29;;;;;;;;;;;;;;;19.86;28.11;100955.69;4360888;32;19947;-59
2021/04/23 12:02:55;;;;;;;;;;;;;;;19.58;27.48;100961.22;4359591;32;19952;-58
2021/04/23 12:05:21;;;;;;;;;;;;;;;19.25;26.52;100946.31;4369130;32;19959;-61
2021/04/23 12:07:47;;;;;;;;;;;;;;;19.61;26.76;100949.81;4372101;32;20348;-60
2021/04/23 12:10:13;;;;;;;;;;;;;;;19.46;26.01;100947.72;4367356;32;20019;-61
2021/04/23 12:12:41;;;;;;;;;;;;;;;19.13;26.33;100945.97;4363023;32;19966;-60
2021/04/23 12:15:07;;;;;;;;;;;;;;;19.40;26.19;100945.81;4358493;32;19967;-59
2021/04/23 12:17:33;;;;;;;;;;;;;;;18.91;25.95;100941.00;4358443;32;20323;-60
2021/04/23 12:19:58;;;;;;;;;;;;;;;18.73;26.67;100941.38;4358580;32;19981;-60
2021/04/23 12:22:24;;;;;;;;;;;;;;;19.26;25.83;100942.81;4365187;32;19958;-60
2021/04/23 12:24:50;;;;;;;;;;;;;;;19.58;25.57;100933.91;4369919;32;19955;-61
2021/04/23 12:27:18;;;;;;;;;;;;;;;19.32;25.50;100936.78;4372478;32;20627;-61
2021/04/23 12:29:44;;;;;;;;;;;;;;;19.45;25.65;100941.53;4373014;32;20022;-60
2021/04/23 12:32:10;;;;;;;;;;;;;;;19.63;24.77;100938.44;4364417;32;19959;-59